TS87 weather

Public forecast

Using degrees Fahrenheit for public forecast. Weather courtesy of forecast.io.

Closest aviation weather report (METAR) to Bridle Ridge Airport

Closest report is Easterwood Field, 17.9 nm (33.2 km) NW. Retrieved 2020/08/09 01:53 UTC (21 minutes ago):

KCLL 090153Z AUTO 17010KT 10SM CLR 31/22 A3005 RMK AO2 SLP170 T03110222

Closest aviation forecast (TAF) to Bridle Ridge Airport

Closest forecast is Easterwood Field, 17.9 nm (33.2 km) NW. Retrieved 2020-08-09 00:42 UTC (2 hours ago):

TAF KCLL 082339Z 0900/0924 17005KT P6SM SKC FM091200 17004KT P6SM FEW010 FM091400 19008KT P6SM SCT015 FM091600 19009KT P6SM SCT035 FM092200 17007KT P6SM FEW050